Olimpia — UBLF5 — position and weather

sailwx.info

Track history (hours):
 
Tides and Currents Weather Stations Pressure Air Temp Water Temp Dewpoint Dewpoint Depression Visibility Wind Speed Wind Dir Waves Ship Positions

Olimpia

Last reported at 2018-Feb-07 01:22 UTC. Time now 2018-Feb-18 20:36 UTC.
Position N 40°59' E 028°59'.
Warning: this ship's position is 11 days out of date.

Length 127 m; draft 3.6 m.

Type: Cargo ship. MMSI: 273332220.

Date/timePositionNaut miles runAvg speedWind from/ knotsBaromVisibWave heightAir tempDewpointWater temp
2018-Feb-07 01:22N 40°59' E 028°59'  
2018-Feb-04 12:19N 45°11' E 036°28'2 8.0
2018-Feb-04 12:00N 45°14' E 036°28'4 6.5
2018-Feb-04 11:23N 45°18' E 036°28'9 6.8
2018-Feb-04 10:01N 45°22' E 036°40'7 7.0
2018-Feb-04 09:01N 45°29' E 036°40'2 3.2
2018-Feb-04 08:28N 45°30' E 036°38'0 0.0
2018-Feb-04 07:55N 45°30' E 036°37'0 0.0
2018-Feb-04 07:28N 45°30' E 036°38'0 0.0
2018-Feb-04 06:58N 45°30' E 036°37'0 0.0
2018-Feb-04 06:28N 45°30' E 036°37'0 0.0
2018-Feb-04 05:58N 45°30' E 036°37'0 0.0
2018-Feb-04 05:25N 45°30' E 036°38'0 0.0
2018-Feb-04 05:01N 45°30' E 036°38'0 0.0
2018-Feb-04 04:25N 45°30' E 036°37'0 0.0
2018-Feb-04 03:55N 45°30' E 036°37'0 0.0
2018-Feb-04 02:39N 45°30' E 036°37'0 0.0
2018-Feb-03 22:48N 45°30' E 036°37'0 0.0
2018-Feb-03 22:30N 45°30' E 036°37'0 0.0
2018-Feb-03 22:00N 45°30' E 036°37'0 0.0
2018-Feb-03 21:30N 45°30' E 036°37'0 0.0
2018-Feb-03 21:00N 45°30' E 036°37'0 0.0
2018-Feb-03 20:27N 45°30' E 036°37'0 0.0
2018-Feb-03 19:39N 45°30' E 036°37'0 0.0
2018-Feb-03 17:03N 45°30' E 036°37'0 0.1
2018-Feb-03 17:00N 45°30' E 036°37'0 0.0
2018-Feb-03 15:36N 45°30' E 036°37'0 0.0
2018-Feb-03 15:24N 45°30' E 036°37'0 0.0
2018-Feb-03 14:51N 45°30' E 036°37'0 0.0
2018-Feb-03 14:30N 45°30' E 036°37'0 0.0
2018-Feb-03 14:00N 45°30' E 036°37'0 0.0
2018-Feb-03 13:30N 45°30' E 036°37'0 0.0
2018-Feb-03 13:00N 45°30' E 036°38'0 0.0
2018-Feb-03 12:30N 45°30' E 036°38'0 0.0
2018-Feb-03 11:57N 45°30' E 036°38'0 0.0
2018-Feb-03 11:27N 45°30' E 036°38'0 0.0
2018-Feb-03 11:00N 45°30' E 036°38'0 0.0
2018-Feb-03 10:27N 45°30' E 036°38'0 0.0
2018-Feb-03 09:54N 45°30' E 036°38'0 0.0
2018-Feb-03 09:30N 45°30' E 036°38'0 0.0
2018-Feb-03 09:00N 45°30' E 036°38'0 0.0
2018-Feb-03 08:27N 45°30' E 036°38'0 0.0
2018-Feb-03 08:00N 45°30' E 036°38'0 0.0
2018-Feb-03 06:30N 45°30' E 036°37'0 0.0
2018-Feb-03 06:00N 45°30' E 036°37'0 0.0
2018-Feb-03 05:30N 45°30' E 036°37'0 0.0
2018-Feb-03 05:00N 45°30' E 036°37'0 0.0
2018-Feb-03 03:57N 45°30' E 036°37'0 0.0
2018-Feb-03 03:30N 45°30' E 036°37'0 0.0
2018-Feb-03 02:00N 45°30' E 036°37'0 0.0
2018-Feb-03 00:27N 45°30' E 036°38'0 0.0
2018-Feb-03 00:00N 45°30' E 036°38'0 0.0
2018-Feb-02 23:09N 45°30' E 036°38'0 0.0
2018-Feb-02 23:00N 45°30' E 036°38'0 0.0
2018-Feb-02 22:27N 45°30' E 036°38'0 0.0
2018-Feb-02 21:54N 45°30' E 036°38'0 0.0
2018-Feb-02 21:30N 45°30' E 036°38'0 0.0
2018-Feb-02 21:00N 45°30' E 036°38'0 0.0
2018-Feb-02 20:30N 45°30' E 036°38'0 0.0
2018-Feb-02 20:00N 45°30' E 036°38'0 0.0
2018-Feb-02 18:12N 45°30' E 036°38'0 0.0
2018-Feb-02 17:57N 45°30' E 036°38'0 0.0
2018-Feb-02 17:27N 45°30' E 036°38'0 0.0
2018-Feb-02 16:54N 45°30' E 036°38'0 0.0
2018-Feb-02 16:00N 45°30' E 036°38'0 0.0
2018-Feb-02 15:30N 45°30' E 036°37'0 0.0
2018-Feb-02 14:24N 45°30' E 036°38'0 0.0
2018-Feb-02 14:00N 45°30' E 036°38'2 4.0
2018-Feb-02 13:30N 45°31' E 036°40'4 8.0
2018-Feb-02 13:00N 45°33' E 036°45'  
Track history (hours):
 
Tides and Currents Weather Stations Pressure Air Temp Water Temp Dewpoint Dewpoint Depression Visibility Wind Speed Wind Dir Waves Ship Positions

Olimpia

Last reported at 2018-Feb-07 01:22 UTC. Time now 2018-Feb-18 20:36 UTC.
Position N 40°59' E 028°59'.
Warning: this ship's position is 11 days out of date.

Length 127 m; draft 3.6 m.

Type: Cargo ship. MMSI: 273332220.

Date/timePositionNaut miles runAvg speedWind from/ knotsBaromVisibWave heightAir tempDewpointWater temp
2018-Feb-07 01:22N 40°59' E 028°59'  
2018-Feb-04 12:19N 45°11' E 036°28'2 8.0
2018-Feb-04 12:00N 45°14' E 036°28'4 6.5
2018-Feb-04 11:23N 45°18' E 036°28'9 6.8
2018-Feb-04 10:01N 45°22' E 036°40'7 7.0
2018-Feb-04 09:01N 45°29' E 036°40'2 3.2
2018-Feb-04 08:28N 45°30' E 036°38'0 0.0
2018-Feb-04 07:55N 45°30' E 036°37'0 0.0
2018-Feb-04 07:28N 45°30' E 036°38'0 0.0
2018-Feb-04 06:58N 45°30' E 036°37'0 0.0
2018-Feb-04 06:28N 45°30' E 036°37'0 0.0
2018-Feb-04 05:58N 45°30' E 036°37'0 0.0
2018-Feb-04 05:25N 45°30' E 036°38'0 0.0
2018-Feb-04 05:01N 45°30' E 036°38'0 0.0
2018-Feb-04 04:25N 45°30' E 036°37'0 0.0
2018-Feb-04 03:55N 45°30' E 036°37'0 0.0
2018-Feb-04 02:39N 45°30' E 036°37'0 0.0
2018-Feb-03 22:48N 45°30' E 036°37'0 0.0
2018-Feb-03 22:30N 45°30' E 036°37'0 0.0
2018-Feb-03 22:00N 45°30' E 036°37'0 0.0
2018-Feb-03 21:30N 45°30' E 036°37'0 0.0
2018-Feb-03 21:00N 45°30' E 036°37'0 0.0
2018-Feb-03 20:27N 45°30' E 036°37'0 0.0
2018-Feb-03 19:39N 45°30' E 036°37'0 0.0
2018-Feb-03 17:03N 45°30' E 036°37'0 0.1
2018-Feb-03 17:00N 45°30' E 036°37'0 0.0
2018-Feb-03 15:36N 45°30' E 036°37'0 0.0
2018-Feb-03 15:24N 45°30' E 036°37'0 0.0
2018-Feb-03 14:51N 45°30' E 036°37'0 0.0
2018-Feb-03 14:30N 45°30' E 036°37'0 0.0
2018-Feb-03 14:00N 45°30' E 036°37'0 0.0
2018-Feb-03 13:30N 45°30' E 036°37'0 0.0
2018-Feb-03 13:00N 45°30' E 036°38'0 0.0
2018-Feb-03 12:30N 45°30' E 036°38'0 0.0
2018-Feb-03 11:57N 45°30' E 036°38'0 0.0
2018-Feb-03 11:27N 45°30' E 036°38'0 0.0
2018-Feb-03 11:00N 45°30' E 036°38'0 0.0
2018-Feb-03 10:27N 45°30' E 036°38'0 0.0
2018-Feb-03 09:54N 45°30' E 036°38'0 0.0
2018-Feb-03 09:30N 45°30' E 036°38'0 0.0
2018-Feb-03 09:00N 45°30' E 036°38'0 0.0
2018-Feb-03 08:27N 45°30' E 036°38'0 0.0
2018-Feb-03 08:00N 45°30' E 036°38'0 0.0
2018-Feb-03 06:30N 45°30' E 036°37'0 0.0
2018-Feb-03 06:00N 45°30' E 036°37'0 0.0
2018-Feb-03 05:30N 45°30' E 036°37'0 0.0
2018-Feb-03 05:00N 45°30' E 036°37'0 0.0
2018-Feb-03 03:57N 45°30' E 036°37'0 0.0
2018-Feb-03 03:30N 45°30' E 036°37'0 0.0
2018-Feb-03 02:00N 45°30' E 036°37'0 0.0
2018-Feb-03 00:27N 45°30' E 036°38'0 0.0
2018-Feb-03 00:00N 45°30' E 036°38'0 0.0
2018-Feb-02 23:09N 45°30' E 036°38'0 0.0
2018-Feb-02 23:00N 45°30' E 036°38'0 0.0
2018-Feb-02 22:27N 45°30' E 036°38'0 0.0
2018-Feb-02 21:54N 45°30' E 036°38'0 0.0
2018-Feb-02 21:30N 45°30' E 036°38'0 0.0
2018-Feb-02 21:00N 45°30' E 036°38'0 0.0
2018-Feb-02 20:30N 45°30' E 036°38'0 0.0
2018-Feb-02 20:00N 45°30' E 036°38'0 0.0
2018-Feb-02 18:12N 45°30' E 036°38'0 0.0
2018-Feb-02 17:57N 45°30' E 036°38'0 0.0
2018-Feb-02 17:27N 45°30' E 036°38'0 0.0
2018-Feb-02 16:54N 45°30' E 036°38'0 0.0
2018-Feb-02 16:00N 45°30' E 036°38'0 0.0
2018-Feb-02 15:30N 45°30' E 036°37'0 0.0
2018-Feb-02 14:24N 45°30' E 036°38'0 0.0
2018-Feb-02 14:00N 45°30' E 036°38'2 4.0
2018-Feb-02 13:30N 45°31' E 036°40'4 8.0
2018-Feb-02 13:00N 45°33' E 036°45'  

Dump ship's entire track history